Details for Delta Airlines at KLGA




Go Back


Latest METAR
Local Time

KLGA 240010Z 00000KT 2SM BR BKN006 OVC011 05/04 A3031 RMK AO2 SFC VIS 3 T00500044

23/02/2018, 19:16:55

Description
Results
Delta Airlines Logo
Number of Pilots based at KLGA
0 Pilots Based here
Number of Delta Airlines Flights Departed from KLGA
1 Flights Departed
Number of Delta Airlines Flights Arrived at KLGA
1 Flights Arrived
Number of Delta Airlines Schedules Departing from KLGA
703 Schedules
Number of Delta Airlines Schedules Arriving at KLGA
727 Schedules
Number of Delta Airlines Schedules Departing from KLGA availible today
195 Schedules Today
Number of Delta Airlines Schedules Arriving at KLGA availible today
155 Schedules Today
Average Landing Rate at KLGA
-166 fpm
Delta Airlines Average Landing Rate at KLGA
-9 fpm
Total Fuel Purchased at KLGA by Delta Airlines
-979.31 kgs / -2,158.99 lbs

Pilots Based at KLGA


Pilot ID
Pilot Name
Pilot Rank
No. of Flights
No. of Flying Hours
There are no pilots assigned to this hub!   Will you be the first?
Content